sensor_id;sensor_type;location;lat;lon;timestamp;pressure;altitude;pressure_sealevel;temperature;humidity
49583;BME280;36329;48.816;44.624;2023-06-14T00:00:02;100071;;;22;54
49583;BME280;36329;48.816;44.624;2023-06-14T00:03:10;100072;;;22.1;53.9
49583;BME280;36329;48.816;44.624;2023-06-14T00:06:12;100075;;;22;54.3
49583;BME280;36329;48.816;44.624;2023-06-14T00:09:14;100073;;;21.9;54.5
49583;BME280;36329;48.816;44.624;2023-06-14T00:12:16;100072;;;22;54.1
49583;BME280;36329;48.816;44.624;2023-06-14T00:15:18;100077;;;21.9;54.1
49583;BME280;36329;48.816;44.624;2023-06-14T00:18:21;100078;;;21.8;53.8
49583;BME280;36329;48.816;44.624;2023-06-14T00:21:23;100078;;;21.9;53.5
49583;BME280;36329;48.816;44.624;2023-06-14T00:24:24;100068;;;21.9;53.1
49583;BME280;36329;48.816;44.624;2023-06-14T00:27:26;100080;;;21.9;53.4
49583;BME280;36329;48.816;44.624;2023-06-14T00:30:28;100079;;;21.9;53
49583;BME280;36329;48.816;44.624;2023-06-14T00:33:30;100089;;;21.8;52.5
49583;BME280;36329;48.816;44.624;2023-06-14T00:36:33;100093;;;21.8;52.3
49583;BME280;36329;48.816;44.624;2023-06-14T00:39:35;100100;;;21.9;52.2
49583;BME280;36329;48.816;44.624;2023-06-14T00:42:37;100091;;;21.9;52
49583;BME280;36329;48.816;44.624;2023-06-14T00:45:39;100092;;;21.9;51.8
49583;BME280;36329;48.816;44.624;2023-06-14T00:48:41;100094;;;21.8;51.5
49583;BME280;36329;48.816;44.624;2023-06-14T00:51:44;100088;;;21.8;51.7
49583;BME280;36329;48.816;44.624;2023-06-14T00:54:46;100088;;;21.8;51.8
49583;BME280;36329;48.816;44.624;2023-06-14T00:57:48;100095;;;21.9;51.9
49583;BME280;36329;48.816;44.624;2023-06-14T01:00:50;100101;;;21.8;51.9
49583;BME280;36329;48.816;44.624;2023-06-14T01:03:54;100092;;;21.8;51.9
49583;BME280;36329;48.816;44.624;2023-06-14T01:07:02;100088;;;21.8;52
49583;BME280;36329;48.816;44.624;2023-06-14T01:10:19;100093;;;21.8;52
49583;BME280;36329;48.816;44.624;2023-06-14T01:13:28;100092;;;21.8;51.7
49583;BME280;36329;48.816;44.624;2023-06-14T01:16:32;100092;;;21.8;51.9
49583;BME280;36329;48.816;44.624;2023-06-14T01:19:34;100090;;;21.7;51.9
49583;BME280;36329;48.816;44.624;2023-06-14T01:22:36;100086;;;21.8;51.5
49583;BME280;36329;48.816;44.624;2023-06-14T01:25:38;100091;;;21.8;51.4
49583;BME280;36329;48.816;44.624;2023-06-14T01:28:40;100094;;;21.8;51.3
49583;BME280;36329;48.816;44.624;2023-06-14T01:31:42;100089;;;21.8;51.4
49583;BME280;36329;48.816;44.624;2023-06-14T01:34:45;100085;;;21.9;51.2
49583;BME280;36329;48.816;44.624;2023-06-14T01:37:48;100086;;;21.9;50.4
49583;BME280;36329;48.816;44.624;2023-06-14T01:40:52;100083;;;22;49.6
49583;BME280;36329;48.816;44.624;2023-06-14T01:43:55;100089;;;22;49.3
49583;BME280;36329;48.816;44.624;2023-06-14T01:46:58;100090;;;22;49.4
49583;BME280;36329;48.816;44.624;2023-06-14T01:50:00;100083;;;22;49.2
49583;BME280;36329;48.816;44.624;2023-06-14T01:53:07;100085;;;22;49.9
49583;BME280;36329;48.816;44.624;2023-06-14T01:56:09;100085;;;22;50.1
49583;BME280;36329;48.816;44.624;2023-06-14T01:59:11;100081;;;22;49.7
49583;BME280;36329;48.816;44.624;2023-06-14T02:02:13;100084;;;22.1;49.7
49583;BME280;36329;48.816;44.624;2023-06-14T02:05:16;100090;;;22.1;49.6
49583;BME280;36329;48.816;44.624;2023-06-14T02:08:18;100092;;;22.2;49.1
49583;BME280;36329;48.816;44.624;2023-06-14T02:11:20;100096;;;22.1;49.1
49583;BME280;36329;48.816;44.624;2023-06-14T02:14:23;100105;;;22.1;48.2
49583;BME280;36329;48.816;44.624;2023-06-14T02:17:26;100101;;;22.1;48.4
49583;BME280;36329;48.816;44.624;2023-06-14T02:20:28;100095;;;22.3;48.2
49583;BME280;36329;48.816;44.624;2023-06-14T02:23:30;100095;;;22.4;48.4
49583;BME280;36329;48.816;44.624;2023-06-14T02:26:32;100103;;;22.3;48.8
49583;BME280;36329;48.816;44.624;2023-06-14T02:29:34;100104;;;22.3;49.3
49583;BME280;36329;48.816;44.624;2023-06-14T02:32:36;100107;;;22.4;49.4
49583;BME280;36329;48.816;44.624;2023-06-14T02:35:38;100101;;;22.5;49.3
49583;BME280;36329;48.816;44.624;2023-06-14T02:38:40;100100;;;22.6;49.4
49583;BME280;36329;48.816;44.624;2023-06-14T02:41:42;100103;;;22.6;49.7
49583;BME280;36329;48.816;44.624;2023-06-14T02:44:44;100101;;;22.6;49.5
49583;BME280;36329;48.816;44.624;2023-06-14T02:47:46;100102;;;22.6;49.9
49583;BME280;36329;48.816;44.624;2023-06-14T02:50:48;100105;;;22.7;50.1
49583;BME280;36329;48.816;44.624;2023-06-14T02:53:50;100101;;;22.7;50.4
49583;BME280;36329;48.816;44.624;2023-06-14T02:56:52;100107;;;22.8;50.4
49583;BME280;36329;48.816;44.624;2023-06-14T02:59:54;100105;;;22.9;50.1
49583;BME280;36329;48.816;44.624;2023-06-14T03:02:55;100098;;;23.1;50
49583;BME280;36329;48.816;44.624;2023-06-14T03:05:58;100096;;;23.4;49.1
49583;BME280;36329;48.816;44.624;2023-06-14T03:09:00;100107;;;23.5;48.5
49583;BME280;36329;48.816;44.624;2023-06-14T03:12:02;100104;;;23.4;48.5
49583;BME280;36329;48.816;44.624;2023-06-14T03:15:05;100109;;;23.3;48.4
49583;BME280;36329;48.816;44.624;2023-06-14T03:18:08;100108;;;23.2;48.5
49583;BME280;36329;48.816;44.624;2023-06-14T03:21:09;100105;;;23.1;48.6
49583;BME280;36329;48.816;44.624;2023-06-14T03:24:11;100103;;;23.2;48.3
49583;BME280;36329;48.816;44.624;2023-06-14T03:27:13;100099;;;23;48.3
49583;BME280;36329;48.816;44.624;2023-06-14T03:30:15;100099;;;23;48.5
49583;BME280;36329;48.816;44.624;2023-06-14T03:33:17;100097;;;23;48.8
49583;BME280;36329;48.816;44.624;2023-06-14T03:36:19;100091;;;23;48.8
49583;BME280;36329;48.816;44.624;2023-06-14T03:39:21;100089;;;23;48.1
49583;BME280;36329;48.816;44.624;2023-06-14T03:42:23;100089;;;22.8;48.7
49583;BME280;36329;48.816;44.624;2023-06-14T03:45:25;100086;;;22.9;48.8
49583;BME280;36329;48.816;44.624;2023-06-14T03:48:27;100091;;;23;49.4
49583;BME280;36329;48.816;44.624;2023-06-14T03:51:29;100099;;;23.1;48.8
49583;BME280;36329;48.816;44.624;2023-06-14T03:54:31;100086;;;23;49.2
49583;BME280;36329;48.816;44.624;2023-06-14T03:57:33;100089;;;23;49.6
49583;BME280;36329;48.816;44.624;2023-06-14T04:00:35;100089;;;22.8;49.4
49583;BME280;36329;48.816;44.624;2023-06-14T04:03:37;100095;;;22.8;49.5
49583;BME280;36329;48.816;44.624;2023-06-14T04:06:39;100091;;;22.8;49.4
49583;BME280;36329;48.816;44.624;2023-06-14T04:09:42;100088;;;22.8;50
49583;BME280;36329;48.816;44.624;2023-06-14T04:12:44;100081;;;23.1;48.2
49583;BME280;36329;48.816;44.624;2023-06-14T04:15:46;100075;;;23.2;48.1
49583;BME280;36329;48.816;44.624;2023-06-14T04:18:48;100081;;;23.3;48.2
49583;BME280;36329;48.816;44.624;2023-06-14T04:21:50;100076;;;23.4;47.5
49583;BME280;36329;48.816;44.624;2023-06-14T04:24:52;100083;;;23.4;47.1
49583;BME280;36329;48.816;44.624;2023-06-14T04:27:54;100078;;;23.5;47.3
49583;BME280;36329;48.816;44.624;2023-06-14T04:30:56;100088;;;23.6;47
49583;BME280;36329;48.816;44.624;2023-06-14T04:33:58;100087;;;23.5;46.9
49583;BME280;36329;48.816;44.624;2023-06-14T04:37:00;100086;;;23.3;48.4
49583;BME280;36329;48.816;44.624;2023-06-14T04:40:02;100080;;;23.3;48.7
49583;BME280;36329;48.816;44.624;2023-06-14T04:43:05;100085;;;23.2;49.5
49583;BME280;36329;48.816;44.624;2023-06-14T04:46:07;100076;;;23.1;49.5
49583;BME280;36329;48.816;44.624;2023-06-14T04:49:09;100078;;;23.3;48.5
49583;BME280;36329;48.816;44.624;2023-06-14T04:52:11;100075;;;23.3;47.5
49583;BME280;36329;48.816;44.624;2023-06-14T04:55:13;100062;;;23.4;46.7
49583;BME280;36329;48.816;44.624;2023-06-14T04:58:16;100068;;;23.7;46.3
49583;BME280;36329;48.816;44.624;2023-06-14T05:01:18;100073;;;23.8;45.3
49583;BME280;36329;48.816;44.624;2023-06-14T05:04:20;100067;;;24;45.5
49583;BME280;36329;48.816;44.624;2023-06-14T05:07:22;100068;;;24.4;44.6
49583;BME280;36329;48.816;44.624;2023-06-14T05:10:24;100059;;;24.6;44.5
49583;BME280;36329;48.816;44.624;2023-06-14T05:13:26;100060;;;24.5;44.9
49583;BME280;36329;48.816;44.624;2023-06-14T05:16:28;100062;;;24.4;45.1
49583;BME280;36329;48.816;44.624;2023-06-14T05:19:30;100061;;;24.5;44.1
49583;BME280;36329;48.816;44.624;2023-06-14T05:22:33;100057;;;24.6;44.1
49583;BME280;36329;48.816;44.624;2023-06-14T05:25:34;100056;;;24.6;43.4
49583;BME280;36329;48.816;44.624;2023-06-14T05:28:36;100056;;;24.6;44.2
49583;BME280;36329;48.816;44.624;2023-06-14T05:31:38;100050;;;24.8;43.4
49583;BME280;36329;48.816;44.624;2023-06-14T05:34:40;100060;;;25.1;42.1
49583;BME280;36329;48.816;44.624;2023-06-14T05:37:42;100061;;;25.3;42.5
49583;BME280;36329;48.816;44.624;2023-06-14T05:40:44;100056;;;25.4;42.8
49583;BME280;36329;48.816;44.624;2023-06-14T05:43:46;100062;;;25.4;41.3
49583;BME280;36329;48.816;44.624;2023-06-14T05:46:48;100066;;;25.6;41.6
49583;BME280;36329;48.816;44.624;2023-06-14T05:49:50;100065;;;25.9;41
49583;BME280;36329;48.816;44.624;2023-06-14T05:52:52;100066;;;26.2;40.7
49583;BME280;36329;48.816;44.624;2023-06-14T05:55:55;100068;;;26.3;41
49583;BME280;36329;48.816;44.624;2023-06-14T05:58:57;100067;;;26.2;41.2
49583;BME280;36329;48.816;44.624;2023-06-14T06:01:59;100065;;;26.2;41
49583;BME280;36329;48.816;44.624;2023-06-14T06:05:00;100065;;;26;40.8
49583;BME280;36329;48.816;44.624;2023-06-14T06:08:02;100064;;;26.5;39.4
49583;BME280;36329;48.816;44.624;2023-06-14T06:11:04;100063;;;26.8;39.5
49583;BME280;36329;48.816;44.624;2023-06-14T06:14:06;100054;;;27.1;38.7
49583;BME280;36329;48.816;44.624;2023-06-14T06:17:08;100053;;;27.1;38.4
49583;BME280;36329;48.816;44.624;2023-06-14T06:20:11;100057;;;27.4;38.9
49583;BME280;36329;48.816;44.624;2023-06-14T06:23:14;100059;;;27.6;37.4
49583;BME280;36329;48.816;44.624;2023-06-14T06:26:16;100059;;;28;38.2
49583;BME280;36329;48.816;44.624;2023-06-14T06:29:17;100056;;;28.2;35.7
49583;BME280;36329;48.816;44.624;2023-06-14T06:32:19;100053;;;28.4;35.6
49583;BME280;36329;48.816;44.624;2023-06-14T06:35:21;100051;;;28.5;34.8
49583;BME280;36329;48.816;44.624;2023-06-14T06:38:23;100047;;;28.5;34.1
49583;BME280;36329;48.816;44.624;2023-06-14T06:41:25;100045;;;28.6;34.3
49583;BME280;36329;48.816;44.624;2023-06-14T06:44:27;100039;;;28.6;34.2
49583;BME280;36329;48.816;44.624;2023-06-14T06:47:29;100039;;;28.9;32.9
49583;BME280;36329;48.816;44.624;2023-06-14T06:50:31;100038;;;28.5;33
49583;BME280;36329;48.816;44.624;2023-06-14T06:53:33;100041;;;28.4;33.4
49583;BME280;36329;48.816;44.624;2023-06-14T06:56:35;100045;;;28.2;34
49583;BME280;36329;48.816;44.624;2023-06-14T06:59:37;100045;;;28.1;32.9
49583;BME280;36329;48.816;44.624;2023-06-14T07:02:38;100041;;;28;32.6
49583;BME280;36329;48.816;44.624;2023-06-14T07:05:40;100034;;;28.1;32.5
49583;BME280;36329;48.816;44.624;2023-06-14T07:08:42;100036;;;28.1;32.6
49583;BME280;36329;48.816;44.624;2023-06-14T07:11:44;100027;;;28;32.3
49583;BME280;36329;48.816;44.624;2023-06-14T07:14:46;100024;;;27.9;32.2
49583;BME280;36329;48.816;44.624;2023-06-14T07:17:48;100024;;;27.9;32.7
49583;BME280;36329;48.816;44.624;2023-06-14T07:20:50;100013;;;27.9;31.9
49583;BME280;36329;48.816;44.624;2023-06-14T07:23:52;100011;;;27.9;31.7
49583;BME280;36329;48.816;44.624;2023-06-14T07:26:54;100012;;;28;32.1
49583;BME280;36329;48.816;44.624;2023-06-14T07:29:56;100009;;;28;31.6
49583;BME280;36329;48.816;44.624;2023-06-14T07:32:58;100006;;;27.9;31.8
49583;BME280;36329;48.816;44.624;2023-06-14T07:36:00;100005;;;28;32.9
49583;BME280;36329;48.816;44.624;2023-06-14T07:39:02;100005;;;28.1;31.9
49583;BME280;36329;48.816;44.624;2023-06-14T07:42:04;99993;;;28.2;31.9
49583;BME280;36329;48.816;44.624;2023-06-14T07:45:07;99999;;;28.3;31.5
49583;BME280;36329;48.816;44.624;2023-06-14T07:48:09;99994;;;28.8;31.9
49583;BME280;36329;48.816;44.624;2023-06-14T07:51:11;99997;;;29.5;30.6
49583;BME280;36329;48.816;44.624;2023-06-14T07:54:13;99993;;;30.5;29.9
49583;BME280;36329;48.816;44.624;2023-06-14T07:57:14;99981;;;31.2;28.3
49583;BME280;36329;48.816;44.624;2023-06-14T08:00:17;99982;;;31.4;27.7
49583;BME280;36329;48.816;44.624;2023-06-14T08:03:19;99974;;;31.1;27.8
49583;BME280;36329;48.816;44.624;2023-06-14T08:06:21;99970;;;31.9;26
49583;BME280;36329;48.816;44.624;2023-06-14T08:09:23;99972;;;32;27.1
49583;BME280;36329;48.816;44.624;2023-06-14T08:12:25;99965;;;31.7;27.3
49583;BME280;36329;48.816;44.624;2023-06-14T08:15:27;99969;;;31.8;26.8
49583;BME280;36329;48.816;44.624;2023-06-14T08:18:29;99979;;;32.2;27
49583;BME280;36329;48.816;44.624;2023-06-14T08:21:30;99975;;;32.7;26.2
49583;BME280;36329;48.816;44.624;2023-06-14T08:24:32;99972;;;32.5;26.5
49583;BME280;36329;48.816;44.624;2023-06-14T08:27:35;99974;;;32.6;25.7
49583;BME280;36329;48.816;44.624;2023-06-14T08:30:37;99970;;;32.8;25.4
49583;BME280;36329;48.816;44.624;2023-06-14T08:33:39;99964;;;33.1;24.8
49583;BME280;36329;48.816;44.624;2023-06-14T08:36:41;99958;;;33.2;25.4
49583;BME280;36329;48.816;44.624;2023-06-14T08:39:42;99958;;;33.8;23.4
49583;BME280;36329;48.816;44.624;2023-06-14T08:42:45;99953;;;34;23.9
49583;BME280;36329;48.816;44.624;2023-06-14T08:45:51;99947;;;33.7;23.6
49583;BME280;36329;48.816;44.624;2023-06-14T08:48:56;99948;;;34;23.2
49583;BME280;36329;48.816;44.624;2023-06-14T08:52:00;99952;;;34.3;23.4
49583;BME280;36329;48.816;44.624;2023-06-14T08:55:02;99951;;;34.8;23.7
49583;BME280;36329;48.816;44.624;2023-06-14T08:58:05;99951;;;35;22.8
49583;BME280;36329;48.816;44.624;2023-06-14T09:01:07;99955;;;34.2;21.9
49583;BME280;36329;48.816;44.624;2023-06-14T09:04:09;99953;;;34.4;21.2
49583;BME280;36329;48.816;44.624;2023-06-14T09:07:11;99949;;;34.2;21.2
49583;BME280;36329;48.816;44.624;2023-06-14T09:10:14;99947;;;33.6;21.7
49583;BME280;36329;48.816;44.624;2023-06-14T09:13:17;99945;;;34.1;20.7
49583;BME280;36329;48.816;44.624;2023-06-14T09:16:19;99945;;;34.8;21.3
49583;BME280;36329;48.816;44.624;2023-06-14T09:19:21;99941;;;34.6;22.2
49583;BME280;36329;48.816;44.624;2023-06-14T09:22:24;99948;;;34.1;22
49583;BME280;36329;48.816;44.624;2023-06-14T09:25:26;99952;;;33.7;22
49583;BME280;36329;48.816;44.624;2023-06-14T09:28:28;99941;;;33.5;23
49583;BME280;36329;48.816;44.624;2023-06-14T09:31:30;99937;;;33.5;22.7
49583;BME280;36329;48.816;44.624;2023-06-14T09:34:32;99936;;;33.4;22.2
49583;BME280;36329;48.816;44.624;2023-06-14T09:37:35;99925;;;33.4;22.2
49583;BME280;36329;48.816;44.624;2023-06-14T09:40:38;99935;;;33.6;22.7
49583;BME280;36329;48.816;44.624;2023-06-14T09:43:40;99932;;;33.7;22.3
49583;BME280;36329;48.816;44.624;2023-06-14T09:46:41;99926;;;33.9;22.4
49583;BME280;36329;48.816;44.624;2023-06-14T09:49:44;99920;;;34.1;21.7
49583;BME280;36329;48.816;44.624;2023-06-14T09:52:48;99923;;;33.9;22.7
49583;BME280;36329;48.816;44.624;2023-06-14T09:55:54;99920;;;33.6;23.1
49583;BME280;36329;48.816;44.624;2023-06-14T09:58:58;99924;;;33.7;23.7
49583;BME280;36329;48.816;44.624;2023-06-14T10:02:07;99924;;;33.8;24
49583;BME280;36329;48.816;44.624;2023-06-14T10:05:15;99928;;;33.7;24.7
49583;BME280;36329;48.816;44.624;2023-06-14T10:08:19;99931;;;33.3;24.6
49583;BME280;36329;48.816;44.624;2023-06-14T10:11:22;99930;;;33.5;24.8
49583;BME280;36329;48.816;44.624;2023-06-14T10:14:26;99931;;;33.7;24.4
49583;BME280;36329;48.816;44.624;2023-06-14T10:17:33;99929;;;33.7;24
49583;BME280;36329;48.816;44.624;2023-06-14T10:20:45;99928;;;33.7;24.4
49583;BME280;36329;48.816;44.624;2023-06-14T10:23:51;99927;;;33.8;24.3
49583;BME280;36329;48.816;44.624;2023-06-14T10:26:57;99927;;;33.5;24.1
49583;BME280;36329;48.816;44.624;2023-06-14T10:30:02;99926;;;33.5;24.1
49583;BME280;36329;48.816;44.624;2023-06-14T10:33:08;99921;;;33.3;24.6
49583;BME280;36329;48.816;44.624;2023-06-14T10:36:26;99921;;;33.7;24.1
49583;BME280;36329;48.816;44.624;2023-06-14T10:39:30;99922;;;33.4;24.6
49583;BME280;36329;48.816;44.624;2023-06-14T10:42:32;99928;;;33.8;24.6
49583;BME280;36329;48.816;44.624;2023-06-14T10:45:34;99932;;;34;24.5
49583;BME280;36329;48.816;44.624;2023-06-14T10:48:40;99935;;;33.8;24.9
49583;BME280;36329;48.816;44.624;2023-06-14T10:51:43;99934;;;33.8;24.8
49583;BME280;36329;48.816;44.624;2023-06-14T10:55:00;99934;;;33.9;24.6
49583;BME280;36329;48.816;44.624;2023-06-14T10:58:04;99932;;;34;24.6
49583;BME280;36329;48.816;44.624;2023-06-14T11:01:06;99933;;;33.9;24.6
49583;BME280;36329;48.816;44.624;2023-06-14T11:04:09;99927;;;33.8;24.9
49583;BME280;36329;48.816;44.624;2023-06-14T11:07:27;99926;;;33.7;25.2
49583;BME280;36329;48.816;44.624;2023-06-14T11:10:39;99923;;;34;25.2
49583;BME280;36329;48.816;44.624;2023-06-14T11:13:44;99928;;;33.9;25.3
49583;BME280;36329;48.816;44.624;2023-06-14T11:16:48;99925;;;34;24.9
49583;BME280;36329;48.816;44.624;2023-06-14T11:19:50;99937;;;33.6;25.2
49583;BME280;36329;48.816;44.624;2023-06-14T11:22:52;99935;;;33.5;25.7
49583;BME280;36329;48.816;44.624;2023-06-14T11:25:55;99938;;;33.3;25.5
49583;BME280;36329;48.816;44.624;2023-06-14T11:28:58;99933;;;33;25.5
49583;BME280;36329;48.816;44.624;2023-06-14T11:32:00;99931;;;33;26.3
49583;BME280;36329;48.816;44.624;2023-06-14T11:35:02;99932;;;33.1;26.2
49583;BME280;36329;48.816;44.624;2023-06-14T11:38:05;99941;;;32.9;25.9
49583;BME280;36329;48.816;44.624;2023-06-14T11:41:07;99930;;;32.9;26.4
49583;BME280;36329;48.816;44.624;2023-06-14T11:44:09;99926;;;32.6;26.7
49583;BME280;36329;48.816;44.624;2023-06-14T11:47:12;99922;;;32.4;26.8
49583;BME280;36329;48.816;44.624;2023-06-14T11:50:14;99917;;;32.3;27.1
49583;BME280;36329;48.816;44.624;2023-06-14T11:53:16;99922;;;32.3;27.2
49583;BME280;36329;48.816;44.624;2023-06-14T11:56:18;99923;;;32.3;27.3
49583;BME280;36329;48.816;44.624;2023-06-14T11:59:21;99928;;;32.3;27.6
49583;BME280;36329;48.816;44.624;2023-06-14T12:02:22;99928;;;32.2;27.4
49583;BME280;36329;48.816;44.624;2023-06-14T12:05:25;99934;;;32.1;27.7
49583;BME280;36329;48.816;44.624;2023-06-14T12:08:32;99939;;;32.1;27.7
49583;BME280;36329;48.816;44.624;2023-06-14T12:11:35;99936;;;32.1;28
49583;BME280;36329;48.816;44.624;2023-06-14T12:14:37;99949;;;32;28.3
49583;BME280;36329;48.816;44.624;2023-06-14T12:17:43;99951;;;31.9;28.8
49583;BME280;36329;48.816;44.624;2023-06-14T12:20:49;99956;;;31.9;28.6
49583;BME280;36329;48.816;44.624;2023-06-14T12:23:52;99961;;;31.7;29.1
49583;BME280;36329;48.816;44.624;2023-06-14T12:26:54;99964;;;31.5;29.5
49583;BME280;36329;48.816;44.624;2023-06-14T12:30:00;99973;;;31.4;29.7
49583;BME280;36329;48.816;44.624;2023-06-14T12:33:03;99988;;;31.1;31.4
49583;BME280;36329;48.816;44.624;2023-06-14T12:36:07;99982;;;30.8;32.1
49583;BME280;36329;48.816;44.624;2023-06-14T12:39:09;99978;;;30.7;33.6
49583;BME280;36329;48.816;44.624;2023-06-14T12:42:11;99986;;;30.5;34.3
49583;BME280;36329;48.816;44.624;2023-06-14T12:45:13;99981;;;30.5;34.7
49583;BME280;36329;48.816;44.624;2023-06-14T12:48:15;99984;;;30.4;35
49583;BME280;36329;48.816;44.624;2023-06-14T12:51:17;99980;;;30.4;35.1
49583;BME280;36329;48.816;44.624;2023-06-14T12:54:19;99981;;;30.5;35.3
49583;BME280;36329;48.816;44.624;2023-06-14T12:57:21;99980;;;30.6;34.8
49583;BME280;36329;48.816;44.624;2023-06-14T13:00:23;99972;;;30.6;35.3
49583;BME280;36329;48.816;44.624;2023-06-14T13:03:24;99966;;;30.6;35.1
49583;BME280;36329;48.816;44.624;2023-06-14T13:06:26;99968;;;30.5;35.2
49583;BME280;36329;48.816;44.624;2023-06-14T13:09:28;99961;;;30.5;35.5
49583;BME280;36329;48.816;44.624;2023-06-14T13:12:30;99962;;;30.5;36.3
49583;BME280;36329;48.816;44.624;2023-06-14T13:15:32;99958;;;30.5;35.9
49583;BME280;36329;48.816;44.624;2023-06-14T13:18:34;99964;;;30.5;36
49583;BME280;36329;48.816;44.624;2023-06-14T13:21:36;99959;;;30.5;36
49583;BME280;36329;48.816;44.624;2023-06-14T13:24:38;99962;;;30.5;36.3
49583;BME280;36329;48.816;44.624;2023-06-14T13:27:41;99962;;;30.3;37
49583;BME280;36329;48.816;44.624;2023-06-14T13:30:43;99972;;;30.4;37.1
49583;BME280;36329;48.816;44.624;2023-06-14T13:33:45;99967;;;30.2;38
49583;BME280;36329;48.816;44.624;2023-06-14T13:36:48;99960;;;30.2;38
49583;BME280;36329;48.816;44.624;2023-06-14T13:39:51;99963;;;30.1;38.5
49583;BME280;36329;48.816;44.624;2023-06-14T13:42:53;99963;;;30;38.9
49583;BME280;36329;48.816;44.624;2023-06-14T13:45:55;99957;;;30.1;38.8
49583;BME280;36329;48.816;44.624;2023-06-14T13:48:57;99949;;;30;38.5
49583;BME280;36329;48.816;44.624;2023-06-14T13:51:59;99943;;;30;38.7
49583;BME280;36329;48.816;44.624;2023-06-14T13:55:01;99939;;;30;38.7
49583;BME280;36329;48.816;44.624;2023-06-14T13:58:05;99931;;;30;38.3
49583;BME280;36329;48.816;44.624;2023-06-14T14:01:07;99929;;;30.1;37.8
49583;BME280;36329;48.816;44.624;2023-06-14T14:04:09;99929;;;30;38.4
49583;BME280;36329;48.816;44.624;2023-06-14T14:07:11;99924;;;29.9;38.4
49583;BME280;36329;48.816;44.624;2023-06-14T14:10:13;99914;;;29.9;38.5
49583;BME280;36329;48.816;44.624;2023-06-14T14:13:15;99909;;;29.8;38.8
49583;BME280;36329;48.816;44.624;2023-06-14T14:16:17;99902;;;29.9;38.8
49583;BME280;36329;48.816;44.624;2023-06-14T14:19:19;99906;;;29.6;39.7
49583;BME280;36329;48.816;44.624;2023-06-14T14:22:21;99903;;;29.7;39.6
49583;BME280;36329;48.816;44.624;2023-06-14T14:25:23;99897;;;29.6;39.9
49583;BME280;36329;48.816;44.624;2023-06-14T14:28:25;99896;;;29.5;40.1
49583;BME280;36329;48.816;44.624;2023-06-14T14:31:27;99889;;;29.4;40.4
49583;BME280;36329;48.816;44.624;2023-06-14T14:34:29;99894;;;29.4;40.4
49583;BME280;36329;48.816;44.624;2023-06-14T14:37:31;99892;;;29.4;40.4
49583;BME280;36329;48.816;44.624;2023-06-14T14:40:33;99890;;;29.4;40.6
49583;BME280;36329;48.816;44.624;2023-06-14T14:43:35;99897;;;29.5;40.8
49583;BME280;36329;48.816;44.624;2023-06-14T14:46:37;99893;;;29.4;41.3
49583;BME280;36329;48.816;44.624;2023-06-14T14:49:39;99902;;;29.4;41.3
49583;BME280;36329;48.816;44.624;2023-06-14T14:52:41;99906;;;29.4;41.8
49583;BME280;36329;48.816;44.624;2023-06-14T14:55:43;99904;;;29.3;42.2
49583;BME280;36329;48.816;44.624;2023-06-14T14:58:45;99902;;;29.2;42.6
49583;BME280;36329;48.816;44.624;2023-06-14T15:01:47;99903;;;29.2;42.7
49583;BME280;36329;48.816;44.624;2023-06-14T15:04:48;99902;;;29.1;42.8
49583;BME280;36329;48.816;44.624;2023-06-14T15:07:50;99908;;;29.1;42.9
49583;BME280;36329;48.816;44.624;2023-06-14T15:10:52;99907;;;29.1;43.2
49583;BME280;36329;48.816;44.624;2023-06-14T15:13:54;99913;;;29.2;43.2
49583;BME280;36329;48.816;44.624;2023-06-14T15:16:56;99908;;;29.2;43
49583;BME280;36329;48.816;44.624;2023-06-14T15:19:58;99913;;;29.3;42.8
49583;BME280;36329;48.816;44.624;2023-06-14T15:23:00;99913;;;29.3;42.4
49583;BME280;36329;48.816;44.624;2023-06-14T15:26:02;99913;;;29.4;42.4
49583;BME280;36329;48.816;44.624;2023-06-14T15:29:04;99913;;;29.3;42.3
49583;BME280;36329;48.816;44.624;2023-06-14T15:32:06;99912;;;29.1;42.7
49583;BME280;36329;48.816;44.624;2023-06-14T15:35:08;99909;;;29;42.9
49583;BME280;36329;48.816;44.624;2023-06-14T15:38:11;99911;;;29.1;42.9
49583;BME280;36329;48.816;44.624;2023-06-14T15:41:13;99913;;;29;43.1
49583;BME280;36329;48.816;44.624;2023-06-14T15:44:15;99915;;;29.2;42.8
49583;BME280;36329;48.816;44.624;2023-06-14T15:47:17;99916;;;29.1;43.1
49583;BME280;36329;48.816;44.624;2023-06-14T15:50:19;99923;;;29;43.4
49583;BME280;36329;48.816;44.624;2023-06-14T15:53:20;99926;;;28.9;44.1
49583;BME280;36329;48.816;44.624;2023-06-14T15:56:22;99931;;;28.9;44.4
49583;BME280;36329;48.816;44.624;2023-06-14T15:59:24;99935;;;28.9;43.7
49583;BME280;36329;48.816;44.624;2023-06-14T16:02:26;99932;;;28.8;44.7
49583;BME280;36329;48.816;44.624;2023-06-14T16:05:28;99939;;;28.7;46.1
49583;BME280;36329;48.816;44.624;2023-06-14T16:08:30;99932;;;28.7;46.2
49583;BME280;36329;48.816;44.624;2023-06-14T16:11:32;99931;;;28.7;46.2
49583;BME280;36329;48.816;44.624;2023-06-14T16:14:34;99934;;;28.7;46.2
49583;BME280;36329;48.816;44.624;2023-06-14T16:17:36;99937;;;28.7;46.6
49583;BME280;36329;48.816;44.624;2023-06-14T16:20:37;99940;;;28.7;46.7
49583;BME280;36329;48.816;44.624;2023-06-14T16:23:39;99946;;;28.6;47.3
49583;BME280;36329;48.816;44.624;2023-06-14T16:26:41;99943;;;28.5;47.8
49583;BME280;36329;48.816;44.624;2023-06-14T16:29:43;99943;;;28.5;47.4
49583;BME280;36329;48.816;44.624;2023-06-14T16:32:45;99946;;;28.5;47.9
49583;BME280;36329;48.816;44.624;2023-06-14T16:35:47;99950;;;28.4;48.6
49583;BME280;36329;48.816;44.624;2023-06-14T16:38:49;99950;;;28.5;47.8
49583;BME280;36329;48.816;44.624;2023-06-14T16:41:51;99953;;;28.5;48.3
49583;BME280;36329;48.816;44.624;2023-06-14T16:44:53;99961;;;28.3;48.4
49583;BME280;36329;48.816;44.624;2023-06-14T16:47:55;99967;;;28.3;47.6
49583;BME280;36329;48.816;44.624;2023-06-14T16:50:57;99962;;;28.2;48.9
49583;BME280;36329;48.816;44.624;2023-06-14T16:53:59;99964;;;28.2;48.1
49583;BME280;36329;48.816;44.624;2023-06-14T16:57:01;99963;;;28.1;49.9
49583;BME280;36329;48.816;44.624;2023-06-14T17:00:03;99962;;;28.1;49.5